sensor_id;sensor_type;location;lat;lon;timestamp;temperature;humidity
2226;DHT22;1119;48.288;8.726;2022-08-19T00:00:38;18.90;99.90
2226;DHT22;1119;48.288;8.726;2022-08-19T00:03:05;18.80;99.90
2226;DHT22;1119;48.288;8.726;2022-08-19T00:05:33;18.80;99.90
2226;DHT22;1119;48.288;8.726;2022-08-19T00:08:01;18.80;99.90
2226;DHT22;1119;48.288;8.726;2022-08-19T00:10:28;18.80;99.90
2226;DHT22;1119;48.288;8.726;2022-08-19T00:12:55;18.80;99.90
2226;DHT22;1119;48.288;8.726;2022-08-19T00:15:22;18.90;99.90
2226;DHT22;1119;48.288;8.726;2022-08-19T00:17:51;18.90;99.90
2226;DHT22;1119;48.288;8.726;2022-08-19T00:20:21;18.90;99.90
2226;DHT22;1119;48.288;8.726;2022-08-19T00:22:48;18.90;99.90
2226;DHT22;1119;48.288;8.726;2022-08-19T00:25:17;18.90;99.90
2226;DHT22;1119;48.288;8.726;2022-08-19T00:27:44;19.00;99.90
2226;DHT22;1119;48.288;8.726;2022-08-19T00:30:13;19.00;99.90
2226;DHT22;1119;48.288;8.726;2022-08-19T00:32:40;18.90;99.90
2226;DHT22;1119;48.288;8.726;2022-08-19T00:35:09;19.00;99.90
2226;DHT22;1119;48.288;8.726;2022-08-19T00:37:37;18.90;99.90
2226;DHT22;1119;48.288;8.726;2022-08-19T00:40:10;18.90;99.90
2226;DHT22;1119;48.288;8.726;2022-08-19T00:42:38;18.90;99.90
2226;DHT22;1119;48.288;8.726;2022-08-19T00:45:11;18.90;99.90
2226;DHT22;1119;48.288;8.726;2022-08-19T00:47:40;18.90;99.90
2226;DHT22;1119;48.288;8.726;2022-08-19T00:50:11;18.90;99.90
2226;DHT22;1119;48.288;8.726;2022-08-19T00:52:42;18.80;99.90
2226;DHT22;1119;48.288;8.726;2022-08-19T00:55:13;18.80;99.90
2226;DHT22;1119;48.288;8.726;2022-08-19T00:57:48;18.80;99.90
2226;DHT22;1119;48.288;8.726;2022-08-19T01:00:18;18.70;99.90
2226;DHT22;1119;48.288;8.726;2022-08-19T01:02:46;18.80;99.90
2226;DHT22;1119;48.288;8.726;2022-08-19T01:05:18;18.70;99.90
2226;DHT22;1119;48.288;8.726;2022-08-19T01:07:48;18.70;99.90
2226;DHT22;1119;48.288;8.726;2022-08-19T01:10:18;18.70;99.90
2226;DHT22;1119;48.288;8.726;2022-08-19T01:12:47;18.70;99.90
2226;DHT22;1119;48.288;8.726;2022-08-19T01:15:19;18.60;99.90
2226;DHT22;1119;48.288;8.726;2022-08-19T01:17:48;18.60;99.90
2226;DHT22;1119;48.288;8.726;2022-08-19T01:20:20;18.60;99.90
2226;DHT22;1119;48.288;8.726;2022-08-19T01:22:53;18.60;99.90
2226;DHT22;1119;48.288;8.726;2022-08-19T01:25:27;18.60;99.90
2226;DHT22;1119;48.288;8.726;2022-08-19T01:27:57;18.50;99.90
2226;DHT22;1119;48.288;8.726;2022-08-19T01:30:27;18.40;99.90
2226;DHT22;1119;48.288;8.726;2022-08-19T01:32:57;18.50;99.90
2226;DHT22;1119;48.288;8.726;2022-08-19T01:35:27;18.40;99.90
2226;DHT22;1119;48.288;8.726;2022-08-19T01:38:01;18.40;99.90
2226;DHT22;1119;48.288;8.726;2022-08-19T01:40:35;18.30;99.90
2226;DHT22;1119;48.288;8.726;2022-08-19T01:43:05;18.30;99.90
2226;DHT22;1119;48.288;8.726;2022-08-19T01:45:34;18.20;99.90
2226;DHT22;1119;48.288;8.726;2022-08-19T01:48:02;18.30;99.90
2226;DHT22;1119;48.288;8.726;2022-08-19T01:50:30;18.30;99.90
2226;DHT22;1119;48.288;8.726;2022-08-19T01:53:01;18.30;99.90
2226;DHT22;1119;48.288;8.726;2022-08-19T01:55:32;18.30;99.90
2226;DHT22;1119;48.288;8.726;2022-08-19T01:58:04;18.30;99.90
2226;DHT22;1119;48.288;8.726;2022-08-19T02:00:32;18.30;99.90
2226;DHT22;1119;48.288;8.726;2022-08-19T02:02:59;18.30;99.90
2226;DHT22;1119;48.288;8.726;2022-08-19T02:05:27;18.30;99.90
2226;DHT22;1119;48.288;8.726;2022-08-19T02:07:55;18.40;99.90
2226;DHT22;1119;48.288;8.726;2022-08-19T02:10:23;18.30;99.90
2226;DHT22;1119;48.288;8.726;2022-08-19T02:12:51;18.30;99.90
2226;DHT22;1119;48.288;8.726;2022-08-19T02:15:19;18.40;99.90
2226;DHT22;1119;48.288;8.726;2022-08-19T02:17:48;18.40;99.90
2226;DHT22;1119;48.288;8.726;2022-08-19T02:20:15;18.40;99.90
2226;DHT22;1119;48.288;8.726;2022-08-19T02:22:43;18.40;99.90
2226;DHT22;1119;48.288;8.726;2022-08-19T02:25:11;18.40;99.90
2226;DHT22;1119;48.288;8.726;2022-08-19T02:27:41;18.40;99.90
2226;DHT22;1119;48.288;8.726;2022-08-19T02:30:12;18.40;99.90
2226;DHT22;1119;48.288;8.726;2022-08-19T02:32:41;18.40;99.90
2226;DHT22;1119;48.288;8.726;2022-08-19T02:35:09;18.40;99.90
2226;DHT22;1119;48.288;8.726;2022-08-19T02:37:37;18.50;99.90
2226;DHT22;1119;48.288;8.726;2022-08-19T02:40:21;18.50;99.90
2226;DHT22;1119;48.288;8.726;2022-08-19T02:42:50;18.40;99.90
2226;DHT22;1119;48.288;8.726;2022-08-19T02:45:17;18.40;99.90
2226;DHT22;1119;48.288;8.726;2022-08-19T02:47:44;18.40;99.90
2226;DHT22;1119;48.288;8.726;2022-08-19T02:50:12;18.30;99.90
2226;DHT22;1119;48.288;8.726;2022-08-19T02:52:40;18.40;99.90
2226;DHT22;1119;48.288;8.726;2022-08-19T02:55:08;18.40;99.90
2226;DHT22;1119;48.288;8.726;2022-08-19T02:57:35;18.40;99.90
2226;DHT22;1119;48.288;8.726;2022-08-19T03:00:06;18.40;99.90
2226;DHT22;1119;48.288;8.726;2022-08-19T03:02:35;18.40;99.90
2226;DHT22;1119;48.288;8.726;2022-08-19T03:05:03;18.30;99.90
2226;DHT22;1119;48.288;8.726;2022-08-19T03:07:33;18.40;99.90
2226;DHT22;1119;48.288;8.726;2022-08-19T03:10:00;18.30;99.90
2226;DHT22;1119;48.288;8.726;2022-08-19T03:12:30;18.30;99.90
2226;DHT22;1119;48.288;8.726;2022-08-19T03:14:57;18.30;99.90
2226;DHT22;1119;48.288;8.726;2022-08-19T03:17:26;18.30;99.90
2226;DHT22;1119;48.288;8.726;2022-08-19T03:19:53;18.30;99.90
2226;DHT22;1119;48.288;8.726;2022-08-19T03:22:21;18.30;99.90
2226;DHT22;1119;48.288;8.726;2022-08-19T03:24:48;18.30;99.90
2226;DHT22;1119;48.288;8.726;2022-08-19T03:27:15;18.30;99.90
2226;DHT22;1119;48.288;8.726;2022-08-19T03:29:43;18.30;99.90
2226;DHT22;1119;48.288;8.726;2022-08-19T03:32:10;18.20;99.90
2226;DHT22;1119;48.288;8.726;2022-08-19T03:34:39;18.30;99.90
2226;DHT22;1119;48.288;8.726;2022-08-19T03:37:08;18.30;99.90
2226;DHT22;1119;48.288;8.726;2022-08-19T03:39:39;18.20;99.90
2226;DHT22;1119;48.288;8.726;2022-08-19T03:42:07;18.20;99.90
2226;DHT22;1119;48.288;8.726;2022-08-19T03:44:35;18.20;99.90
2226;DHT22;1119;48.288;8.726;2022-08-19T03:47:03;18.20;99.90
2226;DHT22;1119;48.288;8.726;2022-08-19T03:49:32;18.10;99.90
2226;DHT22;1119;48.288;8.726;2022-08-19T03:52:02;18.10;99.90
2226;DHT22;1119;48.288;8.726;2022-08-19T03:54:33;18.10;99.90
2226;DHT22;1119;48.288;8.726;2022-08-19T03:57:00;18.10;99.90
2226;DHT22;1119;48.288;8.726;2022-08-19T03:59:30;18.10;99.90
2226;DHT22;1119;48.288;8.726;2022-08-19T04:02:00;18.10;99.90
2226;DHT22;1119;48.288;8.726;2022-08-19T04:04:29;18.10;99.90
2226;DHT22;1119;48.288;8.726;2022-08-19T04:06:56;18.10;99.90
2226;DHT22;1119;48.288;8.726;2022-08-19T04:09:25;18.10;99.90
2226;DHT22;1119;48.288;8.726;2022-08-19T04:11:54;18.10;99.90
2226;DHT22;1119;48.288;8.726;2022-08-19T04:14:25;18.10;99.90
2226;DHT22;1119;48.288;8.726;2022-08-19T04:16:55;18.10;99.90
2226;DHT22;1119;48.288;8.726;2022-08-19T04:19:22;18.10;99.90
2226;DHT22;1119;48.288;8.726;2022-08-19T04:21:53;18.10;99.90
2226;DHT22;1119;48.288;8.726;2022-08-19T04:24:21;18.10;99.90
2226;DHT22;1119;48.288;8.726;2022-08-19T04:26:50;18.20;99.90
2226;DHT22;1119;48.288;8.726;2022-08-19T04:29:20;18.20;99.90
2226;DHT22;1119;48.288;8.726;2022-08-19T04:31:51;18.20;99.90
2226;DHT22;1119;48.288;8.726;2022-08-19T04:34:21;18.20;99.90
2226;DHT22;1119;48.288;8.726;2022-08-19T04:36:50;18.20;99.90
2226;DHT22;1119;48.288;8.726;2022-08-19T04:39:21;18.10;99.90
2226;DHT22;1119;48.288;8.726;2022-08-19T04:42:11;18.10;99.90
2226;DHT22;1119;48.288;8.726;2022-08-19T04:44:56;18.10;99.90
2226;DHT22;1119;48.288;8.726;2022-08-19T04:47:24;18.10;99.90
2226;DHT22;1119;48.288;8.726;2022-08-19T04:49:51;18.20;99.90
2226;DHT22;1119;48.288;8.726;2022-08-19T04:52:18;18.10;99.90
2226;DHT22;1119;48.288;8.726;2022-08-19T04:54:45;18.10;99.90
2226;DHT22;1119;48.288;8.726;2022-08-19T04:57:13;18.20;99.90
2226;DHT22;1119;48.288;8.726;2022-08-19T04:59:41;18.10;99.90
2226;DHT22;1119;48.288;8.726;2022-08-19T05:02:08;18.20;99.90
2226;DHT22;1119;48.288;8.726;2022-08-19T05:04:36;18.20;99.90
2226;DHT22;1119;48.288;8.726;2022-08-19T05:07:04;18.20;99.90
2226;DHT22;1119;48.288;8.726;2022-08-19T05:09:33;18.20;99.90
2226;DHT22;1119;48.288;8.726;2022-08-19T05:12:01;18.20;99.90
2226;DHT22;1119;48.288;8.726;2022-08-19T05:14:29;18.20;99.90
2226;DHT22;1119;48.288;8.726;2022-08-19T05:16:57;18.20;99.90
2226;DHT22;1119;48.288;8.726;2022-08-19T05:19:24;18.10;99.90
2226;DHT22;1119;48.288;8.726;2022-08-19T05:22:08;18.10;99.90
2226;DHT22;1119;48.288;8.726;2022-08-19T05:24:53;18.10;99.90
2226;DHT22;1119;48.288;8.726;2022-08-19T05:27:20;18.10;99.90
2226;DHT22;1119;48.288;8.726;2022-08-19T05:29:49;18.20;99.90
2226;DHT22;1119;48.288;8.726;2022-08-19T05:32:16;18.20;99.90
2226;DHT22;1119;48.288;8.726;2022-08-19T05:34:43;18.20;99.90
2226;DHT22;1119;48.288;8.726;2022-08-19T05:37:10;18.30;99.90
2226;DHT22;1119;48.288;8.726;2022-08-19T05:39:37;18.30;99.90
2226;DHT22;1119;48.288;8.726;2022-08-19T05:42:09;18.30;99.90
2226;DHT22;1119;48.288;8.726;2022-08-19T05:44:39;18.30;99.90
2226;DHT22;1119;48.288;8.726;2022-08-19T05:47:12;18.30;99.90
2226;DHT22;1119;48.288;8.726;2022-08-19T05:49:40;18.30;99.90
2226;DHT22;1119;48.288;8.726;2022-08-19T05:52:09;18.30;99.90
2226;DHT22;1119;48.288;8.726;2022-08-19T05:54:39;18.30;99.90
2226;DHT22;1119;48.288;8.726;2022-08-19T05:57:07;18.30;99.90
2226;DHT22;1119;48.288;8.726;2022-08-19T05:59:36;18.40;99.90
2226;DHT22;1119;48.288;8.726;2022-08-19T06:02:04;18.30;99.90
2226;DHT22;1119;48.288;8.726;2022-08-19T06:04:33;18.30;99.90
2226;DHT22;1119;48.288;8.726;2022-08-19T06:07:00;18.40;99.90
2226;DHT22;1119;48.288;8.726;2022-08-19T06:09:28;18.40;99.90
2226;DHT22;1119;48.288;8.726;2022-08-19T06:11:57;18.40;99.90
2226;DHT22;1119;48.288;8.726;2022-08-19T06:14:27;18.40;99.90
2226;DHT22;1119;48.288;8.726;2022-08-19T06:16:56;18.40;99.90
2226;DHT22;1119;48.288;8.726;2022-08-19T06:19:28;18.40;99.90
2226;DHT22;1119;48.288;8.726;2022-08-19T06:21:58;18.40;99.90
2226;DHT22;1119;48.288;8.726;2022-08-19T06:24:28;18.40;99.90
2226;DHT22;1119;48.288;8.726;2022-08-19T06:26:56;18.50;99.90
2226;DHT22;1119;48.288;8.726;2022-08-19T06:29:25;18.50;99.90
2226;DHT22;1119;48.288;8.726;2022-08-19T06:31:56;18.50;99.90
2226;DHT22;1119;48.288;8.726;2022-08-19T06:34:24;18.60;99.90
2226;DHT22;1119;48.288;8.726;2022-08-19T06:36:53;18.60;99.90
2226;DHT22;1119;48.288;8.726;2022-08-19T06:39:24;18.60;99.90
2226;DHT22;1119;48.288;8.726;2022-08-19T06:41:56;18.60;99.90
2226;DHT22;1119;48.288;8.726;2022-08-19T06:44:30;18.70;99.90
2226;DHT22;1119;48.288;8.726;2022-08-19T06:47:02;18.70;99.90
2226;DHT22;1119;48.288;8.726;2022-08-19T06:49:29;18.70;99.90
2226;DHT22;1119;48.288;8.726;2022-08-19T06:51:57;18.70;99.90
2226;DHT22;1119;48.288;8.726;2022-08-19T06:54:27;18.70;99.90
2226;DHT22;1119;48.288;8.726;2022-08-19T06:56:55;18.70;99.90
2226;DHT22;1119;48.288;8.726;2022-08-19T06:59:24;18.70;99.90
2226;DHT22;1119;48.288;8.726;2022-08-19T07:01:54;18.70;99.90
2226;DHT22;1119;48.288;8.726;2022-08-19T07:04:24;18.70;99.90
2226;DHT22;1119;48.288;8.726;2022-08-19T07:06:57;18.80;99.90
2226;DHT22;1119;48.288;8.726;2022-08-19T07:09:27;18.90;99.90
2226;DHT22;1119;48.288;8.726;2022-08-19T07:11:55;18.90;99.90
2226;DHT22;1119;48.288;8.726;2022-08-19T07:14:24;18.90;99.90
2226;DHT22;1119;48.288;8.726;2022-08-19T07:16:54;18.90;99.90
2226;DHT22;1119;48.288;8.726;2022-08-19T07:19:24;19.00;99.90
2226;DHT22;1119;48.288;8.726;2022-08-19T07:21:54;19.00;99.90
2226;DHT22;1119;48.288;8.726;2022-08-19T07:24:22;19.10;99.90
2226;DHT22;1119;48.288;8.726;2022-08-19T07:26:54;19.10;99.90
2226;DHT22;1119;48.288;8.726;2022-08-19T07:29:23;19.10;99.90
2226;DHT22;1119;48.288;8.726;2022-08-19T07:31:50;19.20;99.90
2226;DHT22;1119;48.288;8.726;2022-08-19T07:34:18;19.20;99.90
2226;DHT22;1119;48.288;8.726;2022-08-19T07:36:45;19.20;99.90
2226;DHT22;1119;48.288;8.726;2022-08-19T07:39:15;19.20;99.90
2226;DHT22;1119;48.288;8.726;2022-08-19T07:41:44;19.20;99.90
2226;DHT22;1119;48.288;8.726;2022-08-19T07:44:14;19.20;99.90
2226;DHT22;1119;48.288;8.726;2022-08-19T07:46:44;19.20;99.90
2226;DHT22;1119;48.288;8.726;2022-08-19T07:49:12;19.20;99.90
2226;DHT22;1119;48.288;8.726;2022-08-19T07:51:43;19.10;99.90
2226;DHT22;1119;48.288;8.726;2022-08-19T07:54:11;19.20;99.90
2226;DHT22;1119;48.288;8.726;2022-08-19T07:56:38;19.20;99.90
2226;DHT22;1119;48.288;8.726;2022-08-19T07:59:06;19.10;99.90
2226;DHT22;1119;48.288;8.726;2022-08-19T08:01:36;19.10;99.90
2226;DHT22;1119;48.288;8.726;2022-08-19T08:04:06;19.10;99.90
2226;DHT22;1119;48.288;8.726;2022-08-19T08:06:51;19.10;99.90
2226;DHT22;1119;48.288;8.726;2022-08-19T08:09:37;19.00;99.90
2226;DHT22;1119;48.288;8.726;2022-08-19T08:12:10;19.00;99.90
2226;DHT22;1119;48.288;8.726;2022-08-19T08:14:41;19.00;99.90
2226;DHT22;1119;48.288;8.726;2022-08-19T08:17:11;19.00;99.90
2226;DHT22;1119;48.288;8.726;2022-08-19T08:19:39;19.00;99.90
2226;DHT22;1119;48.288;8.726;2022-08-19T08:22:08;19.00;99.90
2226;DHT22;1119;48.288;8.726;2022-08-19T08:25:01;19.00;99.90
2226;DHT22;1119;48.288;8.726;2022-08-19T08:27:29;19.00;99.90
2226;DHT22;1119;48.288;8.726;2022-08-19T08:29:57;19.10;99.90
2226;DHT22;1119;48.288;8.726;2022-08-19T08:32:25;19.10;99.90
2226;DHT22;1119;48.288;8.726;2022-08-19T08:34:52;19.10;99.90
2226;DHT22;1119;48.288;8.726;2022-08-19T08:37:20;19.10;99.90
2226;DHT22;1119;48.288;8.726;2022-08-19T08:39:47;19.30;99.90
2226;DHT22;1119;48.288;8.726;2022-08-19T08:42:21;19.40;99.90
2226;DHT22;1119;48.288;8.726;2022-08-19T08:44:56;19.40;99.90
2226;DHT22;1119;48.288;8.726;2022-08-19T08:47:32;19.40;99.90
2226;DHT22;1119;48.288;8.726;2022-08-19T08:50:06;19.30;99.90
2226;DHT22;1119;48.288;8.726;2022-08-19T08:52:41;19.30;99.90
2226;DHT22;1119;48.288;8.726;2022-08-19T08:55:13;19.40;99.90
2226;DHT22;1119;48.288;8.726;2022-08-19T08:57:50;19.50;99.90
2226;DHT22;1119;48.288;8.726;2022-08-19T09:00:24;19.50;99.90
2226;DHT22;1119;48.288;8.726;2022-08-19T09:02:55;19.50;99.90
2226;DHT22;1119;48.288;8.726;2022-08-19T09:05:24;19.50;99.90
2226;DHT22;1119;48.288;8.726;2022-08-19T09:08:00;19.50;99.90
2226;DHT22;1119;48.288;8.726;2022-08-19T09:10:36;19.60;99.90
2226;DHT22;1119;48.288;8.726;2022-08-19T09:13:12;19.60;99.90
2226;DHT22;1119;48.288;8.726;2022-08-19T09:15:52;19.60;99.90
2226;DHT22;1119;48.288;8.726;2022-08-19T09:18:22;19.50;99.90
2226;DHT22;1119;48.288;8.726;2022-08-19T09:20:49;19.40;99.90
2226;DHT22;1119;48.288;8.726;2022-08-19T09:23:16;19.40;99.90
2226;DHT22;1119;48.288;8.726;2022-08-19T09:25:43;19.40;99.90
2226;DHT22;1119;48.288;8.726;2022-08-19T09:28:11;19.50;99.90
2226;DHT22;1119;48.288;8.726;2022-08-19T09:30:40;19.50;99.90
2226;DHT22;1119;48.288;8.726;2022-08-19T09:33:08;19.50;99.90
2226;DHT22;1119;48.288;8.726;2022-08-19T09:35:36;19.40;99.90
2226;DHT22;1119;48.288;8.726;2022-08-19T09:38:03;19.40;99.90
2226;DHT22;1119;48.288;8.726;2022-08-19T09:40:31;19.40;99.90
2226;DHT22;1119;48.288;8.726;2022-08-19T09:42:58;19.40;99.90
2226;DHT22;1119;48.288;8.726;2022-08-19T09:45:28;19.40;99.90
2226;DHT22;1119;48.288;8.726;2022-08-19T09:47:56;19.40;99.90
2226;DHT22;1119;48.288;8.726;2022-08-19T09:50:23;19.40;99.90
2226;DHT22;1119;48.288;8.726;2022-08-19T09:52:52;19.40;99.90
2226;DHT22;1119;48.288;8.726;2022-08-19T09:55:20;19.30;99.90
2226;DHT22;1119;48.288;8.726;2022-08-19T09:57:47;19.30;99.90
2226;DHT22;1119;48.288;8.726;2022-08-19T10:00:14;19.40;99.90
2226;DHT22;1119;48.288;8.726;2022-08-19T10:02:41;19.40;99.90
2226;DHT22;1119;48.288;8.726;2022-08-19T10:05:08;19.40;99.90
2226;DHT22;1119;48.288;8.726;2022-08-19T10:07:54;19.40;99.90
2226;DHT22;1119;48.288;8.726;2022-08-19T10:10:22;19.40;99.90
2226;DHT22;1119;48.288;8.726;2022-08-19T10:12:49;19.50;99.90
2226;DHT22;1119;48.288;8.726;2022-08-19T10:15:16;19.50;99.90
2226;DHT22;1119;48.288;8.726;2022-08-19T10:17:46;19.40;99.90
2226;DHT22;1119;48.288;8.726;2022-08-19T10:20:13;19.50;99.90
2226;DHT22;1119;48.288;8.726;2022-08-19T10:22:40;19.50;99.90
2226;DHT22;1119;48.288;8.726;2022-08-19T10:25:09;19.50;99.90
2226;DHT22;1119;48.288;8.726;2022-08-19T10:27:38;19.60;99.90
2226;DHT22;1119;48.288;8.726;2022-08-19T10:30:06;19.60;99.90
2226;DHT22;1119;48.288;8.726;2022-08-19T10:32:34;19.60;99.90
2226;DHT22;1119;48.288;8.726;2022-08-19T10:35:02;19.60;99.90
2226;DHT22;1119;48.288;8.726;2022-08-19T10:37:33;19.60;99.90
2226;DHT22;1119;48.288;8.726;2022-08-19T10:40:00;19.60;99.90
2226;DHT22;1119;48.288;8.726;2022-08-19T10:42:31;19.60;99.90
2226;DHT22;1119;48.288;8.726;2022-08-19T10:44:58;19.60;99.90
2226;DHT22;1119;48.288;8.726;2022-08-19T10:47:25;19.60;99.90
2226;DHT22;1119;48.288;8.726;2022-08-19T10:49:53;19.70;99.90
2226;DHT22;1119;48.288;8.726;2022-08-19T10:52:39;19.70;99.90
2226;DHT22;1119;48.288;8.726;2022-08-19T10:55:08;19.70;99.90
2226;DHT22;1119;48.288;8.726;2022-08-19T10:57:54;19.80;99.90
2226;DHT22;1119;48.288;8.726;2022-08-19T11:00:22;19.80;99.90
2226;DHT22;1119;48.288;8.726;2022-08-19T11:02:50;19.80;99.90
2226;DHT22;1119;48.288;8.726;2022-08-19T11:05:18;19.80;99.90
2226;DHT22;1119;48.288;8.726;2022-08-19T11:07:47;19.80;99.90
2226;DHT22;1119;48.288;8.726;2022-08-19T11:10:15;19.90;99.90
2226;DHT22;1119;48.288;8.726;2022-08-19T11:12:44;20.00;99.90
2226;DHT22;1119;48.288;8.726;2022-08-19T11:15:14;20.00;99.90
2226;DHT22;1119;48.288;8.726;2022-08-19T11:17:42;19.90;99.90
2226;DHT22;1119;48.288;8.726;2022-08-19T11:20:10;19.90;99.90
2226;DHT22;1119;48.288;8.726;2022-08-19T11:22:39;19.80;99.90
2226;DHT22;1119;48.288;8.726;2022-08-19T11:25:07;19.80;99.90
2226;DHT22;1119;48.288;8.726;2022-08-19T11:27:38;19.80;99.90
2226;DHT22;1119;48.288;8.726;2022-08-19T11:30:09;19.80;99.90
2226;DHT22;1119;48.288;8.726;2022-08-19T11:32:39;19.80;99.90
2226;DHT22;1119;48.288;8.726;2022-08-19T11:35:07;19.90;99.90
2226;DHT22;1119;48.288;8.726;2022-08-19T11:37:36;19.90;99.90
2226;DHT22;1119;48.288;8.726;2022-08-19T11:40:05;19.80;99.90
2226;DHT22;1119;48.288;8.726;2022-08-19T11:42:33;19.80;99.90
2226;DHT22;1119;48.288;8.726;2022-08-19T11:45:17;19.80;99.90
2226;DHT22;1119;48.288;8.726;2022-08-19T11:47:46;19.80;99.90
2226;DHT22;1119;48.288;8.726;2022-08-19T11:50:13;19.90;99.90
2226;DHT22;1119;48.288;8.726;2022-08-19T11:52:41;19.90;99.90
2226;DHT22;1119;48.288;8.726;2022-08-19T11:55:09;19.90;99.90
2226;DHT22;1119;48.288;8.726;2022-08-19T11:57:36;20.00;99.90
2226;DHT22;1119;48.288;8.726;2022-08-19T12:00:05;20.10;99.90
2226;DHT22;1119;48.288;8.726;2022-08-19T12:02:33;20.20;99.90
2226;DHT22;1119;48.288;8.726;2022-08-19T12:05:02;20.20;99.90
2226;DHT22;1119;48.288;8.726;2022-08-19T12:07:29;20.20;99.90
2226;DHT22;1119;48.288;8.726;2022-08-19T12:09:58;20.30;99.90
2226;DHT22;1119;48.288;8.726;2022-08-19T12:12:26;20.40;99.90
2226;DHT22;1119;48.288;8.726;2022-08-19T12:14:54;20.40;99.90
2226;DHT22;1119;48.288;8.726;2022-08-19T12:17:24;20.40;99.90
2226;DHT22;1119;48.288;8.726;2022-08-19T12:19:52;20.40;99.90
2226;DHT22;1119;48.288;8.726;2022-08-19T12:22:21;20.30;99.90
2226;DHT22;1119;48.288;8.726;2022-08-19T12:24:48;20.20;99.90
2226;DHT22;1119;48.288;8.726;2022-08-19T12:27:18;20.20;99.90
2226;DHT22;1119;48.288;8.726;2022-08-19T12:29:45;20.10;99.90
2226;DHT22;1119;48.288;8.726;2022-08-19T12:32:12;20.10;99.90
2226;DHT22;1119;48.288;8.726;2022-08-19T12:34:39;20.20;99.90
2226;DHT22;1119;48.288;8.726;2022-08-19T12:37:08;20.10;99.90
2226;DHT22;1119;48.288;8.726;2022-08-19T12:39:40;20.10;99.90
2226;DHT22;1119;48.288;8.726;2022-08-19T12:42:08;20.10;99.90
2226;DHT22;1119;48.288;8.726;2022-08-19T12:44:36;20.10;99.90
2226;DHT22;1119;48.288;8.726;2022-08-19T12:47:06;20.10;99.90
2226;DHT22;1119;48.288;8.726;2022-08-19T12:49:34;20.00;99.90
2226;DHT22;1119;48.288;8.726;2022-08-19T12:52:03;19.90;99.90
2226;DHT22;1119;48.288;8.726;2022-08-19T12:54:31;19.90;99.90
2226;DHT22;1119;48.288;8.726;2022-08-19T12:56:59;19.90;99.90
2226;DHT22;1119;48.288;8.726;2022-08-19T12:59:27;19.90;99.90
2226;DHT22;1119;48.288;8.726;2022-08-19T13:01:54;19.90;99.90
2226;DHT22;1119;48.288;8.726;2022-08-19T13:04:21;19.90;99.90
2226;DHT22;1119;48.288;8.726;2022-08-19T13:06:48;19.90;99.90
2226;DHT22;1119;48.288;8.726;2022-08-19T13:09:15;20.00;99.90
2226;DHT22;1119;48.288;8.726;2022-08-19T13:11:42;20.00;99.90
2226;DHT22;1119;48.288;8.726;2022-08-19T13:14:11;20.00;99.90
2226;DHT22;1119;48.288;8.726;2022-08-19T13:16:39;20.00;99.90
2226;DHT22;1119;48.288;8.726;2022-08-19T13:19:06;20.00;99.90
2226;DHT22;1119;48.288;8.726;2022-08-19T13:21:33;20.00;99.90
2226;DHT22;1119;48.288;8.726;2022-08-19T13:24:02;20.00;99.90
2226;DHT22;1119;48.288;8.726;2022-08-19T13:26:29;19.90;99.90
2226;DHT22;1119;48.288;8.726;2022-08-19T13:28:56;19.90;99.90
2226;DHT22;1119;48.288;8.726;2022-08-19T13:31:42;19.80;99.90
2226;DHT22;1119;48.288;8.726;2022-08-19T13:34:30;19.70;99.90
2226;DHT22;1119;48.288;8.726;2022-08-19T13:37:00;19.70;99.90
2226;DHT22;1119;48.288;8.726;2022-08-19T13:39:28;19.70;99.90
2226;DHT22;1119;48.288;8.726;2022-08-19T13:41:55;19.70;99.90
2226;DHT22;1119;48.288;8.726;2022-08-19T13:44:23;19.70;99.90
2226;DHT22;1119;48.288;8.726;2022-08-19T13:46:51;19.70;99.90
2226;DHT22;1119;48.288;8.726;2022-08-19T13:49:19;19.70;99.90
2226;DHT22;1119;48.288;8.726;2022-08-19T13:51:46;19.70;99.90
2226;DHT22;1119;48.288;8.726;2022-08-19T13:54:13;19.80;99.90
2226;DHT22;1119;48.288;8.726;2022-08-19T13:56:41;19.80;99.90
2226;DHT22;1119;48.288;8.726;2022-08-19T13:59:10;19.90;99.90
2226;DHT22;1119;48.288;8.726;2022-08-19T14:01:37;20.00;99.90
2226;DHT22;1119;48.288;8.726;2022-08-19T14:04:06;20.10;99.90
2226;DHT22;1119;48.288;8.726;2022-08-19T14:06:33;20.10;99.90
2226;DHT22;1119;48.288;8.726;2022-08-19T14:09:01;20.20;99.90
2226;DHT22;1119;48.288;8.726;2022-08-19T14:11:28;20.30;99.90
2226;DHT22;1119;48.288;8.726;2022-08-19T14:13:56;20.30;99.90
2226;DHT22;1119;48.288;8.726;2022-08-19T14:16:23;20.40;99.90
2226;DHT22;1119;48.288;8.726;2022-08-19T14:18:50;20.50;99.90
2226;DHT22;1119;48.288;8.726;2022-08-19T14:21:23;20.60;99.90
2226;DHT22;1119;48.288;8.726;2022-08-19T14:23:51;20.70;99.90
2226;DHT22;1119;48.288;8.726;2022-08-19T14:26:20;20.90;99.90
2226;DHT22;1119;48.288;8.726;2022-08-19T14:28:48;21.00;99.90
2226;DHT22;1119;48.288;8.726;2022-08-19T14:31:16;21.00;99.90
2226;DHT22;1119;48.288;8.726;2022-08-19T14:33:45;21.10;99.90
2226;DHT22;1119;48.288;8.726;2022-08-19T14:36:13;21.20;99.90
2226;DHT22;1119;48.288;8.726;2022-08-19T14:38:42;21.30;99.90
2226;DHT22;1119;48.288;8.726;2022-08-19T14:41:12;21.40;99.90
2226;DHT22;1119;48.288;8.726;2022-08-19T14:43:42;21.40;99.90
2226;DHT22;1119;48.288;8.726;2022-08-19T14:46:12;21.50;99.90
2226;DHT22;1119;48.288;8.726;2022-08-19T14:48:40;21.50;99.90
2226;DHT22;1119;48.288;8.726;2022-08-19T14:51:08;21.50;99.90
2226;DHT22;1119;48.288;8.726;2022-08-19T14:53:36;21.40;99.90
2226;DHT22;1119;48.288;8.726;2022-08-19T14:56:08;21.40;99.90
2226;DHT22;1119;48.288;8.726;2022-08-19T14:58:36;21.40;99.90
2226;DHT22;1119;48.288;8.726;2022-08-19T15:01:04;21.30;99.90
2226;DHT22;1119;48.288;8.726;2022-08-19T15:03:31;21.30;99.90
2226;DHT22;1119;48.288;8.726;2022-08-19T15:05:59;21.30;99.90
2226;DHT22;1119;48.288;8.726;2022-08-19T15:08:29;21.20;99.90
2226;DHT22;1119;48.288;8.726;2022-08-19T15:10:58;21.20;99.90
2226;DHT22;1119;48.288;8.726;2022-08-19T15:13:27;21.20;99.90
2226;DHT22;1119;48.288;8.726;2022-08-19T15:15:55;21.20;99.90
2226;DHT22;1119;48.288;8.726;2022-08-19T15:18:23;21.20;99.90
2226;DHT22;1119;48.288;8.726;2022-08-19T15:20:51;21.20;99.90
2226;DHT22;1119;48.288;8.726;2022-08-19T15:23:19;21.20;99.90
2226;DHT22;1119;48.288;8.726;2022-08-19T15:25:46;21.20;99.90
2226;DHT22;1119;48.288;8.726;2022-08-19T15:28:14;21.20;99.90
2226;DHT22;1119;48.288;8.726;2022-08-19T15:30:43;21.10;99.90
2226;DHT22;1119;48.288;8.726;2022-08-19T15:33:11;21.10;99.90
2226;DHT22;1119;48.288;8.726;2022-08-19T15:35:39;21.10;99.90
2226;DHT22;1119;48.288;8.726;2022-08-19T15:38:07;21.10;99.90
2226;DHT22;1119;48.288;8.726;2022-08-19T15:40:34;21.00;99.90
2226;DHT22;1119;48.288;8.726;2022-08-19T15:43:01;21.10;99.90
2226;DHT22;1119;48.288;8.726;2022-08-19T15:45:29;21.00;99.90
2226;DHT22;1119;48.288;8.726;2022-08-19T15:48:00;21.00;99.90
2226;DHT22;1119;48.288;8.726;2022-08-19T15:50:29;21.10;99.90
2226;DHT22;1119;48.288;8.726;2022-08-19T15:53:00;21.00;99.90
2226;DHT22;1119;48.288;8.726;2022-08-19T15:55:31;21.10;99.90
2226;DHT22;1119;48.288;8.726;2022-08-19T15:58:01;21.10;99.90
2226;DHT22;1119;48.288;8.726;2022-08-19T16:00:47;21.10;99.90
2226;DHT22;1119;48.288;8.726;2022-08-19T16:03:33;21.10;99.90
2226;DHT22;1119;48.288;8.726;2022-08-19T16:06:17;21.20;99.90
2226;DHT22;1119;48.288;8.726;2022-08-19T16:08:54;21.20;99.90
2226;DHT22;1119;48.288;8.726;2022-08-19T16:11:25;21.10;99.90
2226;DHT22;1119;48.288;8.726;2022-08-19T16:13:56;21.10;99.90
2226;DHT22;1119;48.288;8.726;2022-08-19T16:16:25;21.10;99.90